createdAt,value
2023-02-01T00:01:30.276Z,58.17
2023-02-01T00:03:56.923Z,57.10
2023-02-01T00:06:23.658Z,57.29
2023-02-01T00:08:50.319Z,57.50
2023-02-01T00:11:16.991Z,56.76
2023-02-01T00:13:43.657Z,56.57
2023-02-01T00:16:10.308Z,56.34
2023-02-01T00:18:36.939Z,56.56
2023-02-01T00:21:03.611Z,55.99
2023-02-01T00:23:30.245Z,55.82
2023-02-01T00:25:56.867Z,55.74
2023-02-01T00:28:23.559Z,58.04
2023-02-01T00:30:50.211Z,59.18
2023-02-01T00:33:16.820Z,58.58
2023-02-01T00:35:43.481Z,57.29
2023-02-01T00:38:10.080Z,56.62
2023-02-01T00:40:36.720Z,57.31
2023-02-01T00:43:03.385Z,58.23
2023-02-01T00:45:30.073Z,57.75
2023-02-01T00:47:56.765Z,56.90
2023-02-01T00:50:23.613Z,57.87
2023-02-01T00:52:50.444Z,57.55
2023-02-01T00:55:17.122Z,57.75
2023-02-01T00:57:43.755Z,57.34
2023-02-01T01:00:10.454Z,59.92
2023-02-01T01:02:37.081Z,59.18
2023-02-01T01:05:03.731Z,58.30
2023-02-01T01:07:30.358Z,58.16
2023-02-01T01:09:57.005Z,59.16
2023-02-01T01:12:23.635Z,57.21
2023-02-01T01:14:50.292Z,56.79
2023-02-01T01:17:16.920Z,56.65
2023-02-01T01:19:43.556Z,55.89
2023-02-01T01:22:10.240Z,57.40
2023-02-01T01:24:36.923Z,56.73
2023-02-01T01:27:03.593Z,57.39
2023-02-01T01:29:30.216Z,58.97
2023-02-01T01:31:56.921Z,57.50
2023-02-01T01:34:23.568Z,58.56
2023-02-01T01:36:50.251Z,59.42
2023-02-01T01:39:16.925Z,58.25
2023-02-01T01:41:43.583Z,58.73
2023-02-01T01:44:10.268Z,58.27
2023-02-01T01:46:36.976Z,57.59
2023-02-01T01:49:03.651Z,56.94
2023-02-01T01:51:30.278Z,55.75
2023-02-01T01:53:56.970Z,57.59
2023-02-01T01:56:23.646Z,58.29
2023-02-01T01:58:50.285Z,57.23
2023-02-01T02:01:16.942Z,57.83
2023-02-01T02:03:43.625Z,57.66
2023-02-01T02:06:10.309Z,57.77
2023-02-01T02:08:36.936Z,57.07
2023-02-01T02:11:03.575Z,56.81
2023-02-01T02:13:30.257Z,57.32
2023-02-01T02:15:56.978Z,57.90
2023-02-01T02:18:25.567Z,57.72
2023-02-01T02:20:52.217Z,57.02
2023-02-01T02:23:18.888Z,56.22
2023-02-01T02:25:45.496Z,56.42
2023-02-01T02:28:12.123Z,56.29
2023-02-01T02:30:38.819Z,56.02
2023-02-01T02:33:05.503Z,56.25
2023-02-01T02:35:32.157Z,55.87
2023-02-01T02:37:58.784Z,56.12
2023-02-01T02:40:25.441Z,56.50
2023-02-01T02:42:52.108Z,56.44
2023-02-01T02:45:18.725Z,56.92
2023-02-01T02:47:45.396Z,57.42
2023-02-01T02:50:12.034Z,59.09
2023-02-01T02:52:38.622Z,58.24
2023-02-01T02:55:05.298Z,57.86
2023-02-01T02:57:31.944Z,58.57
2023-02-01T02:59:58.634Z,58.57
2023-02-01T03:02:25.340Z,60.77
2023-02-01T03:04:51.997Z,61.19
2023-02-01T03:07:18.662Z,60.87
2023-02-01T03:09:45.310Z,59.83
2023-02-01T03:12:11.998Z,58.70
2023-02-01T03:14:38.699Z,59.77
2023-02-01T03:17:05.388Z,61.25
2023-02-01T03:19:31.984Z,60.34
2023-02-01T03:24:25.079Z,60.50
2023-02-01T03:26:52.193Z,60.69
2023-02-01T03:29:18.859Z,61.75
2023-02-01T03:31:45.549Z,61.96
2023-02-01T03:34:12.177Z,61.70
2023-02-01T03:36:38.793Z,61.64
2023-02-01T03:39:05.403Z,61.67
2023-02-01T03:41:32.025Z,60.12
2023-02-01T03:43:58.686Z,59.10
2023-02-01T03:46:25.375Z,58.85
2023-02-01T03:48:52.015Z,59.60
2023-02-01T03:51:18.608Z,60.59
2023-02-01T03:53:45.215Z,61.07
2023-02-01T03:56:11.864Z,61.71
2023-02-01T03:58:38.560Z,60.23
2023-02-01T04:01:05.262Z,59.48
2023-02-01T04:03:31.946Z,58.82
2023-02-01T04:05:58.571Z,59.86
2023-02-01T04:08:25.226Z,59.80
2023-02-01T04:10:51.889Z,59.46
2023-02-01T04:13:18.552Z,59.50
2023-02-01T04:15:45.191Z,58.70
2023-02-01T04:18:11.829Z,59.09
2023-02-01T04:20:38.495Z,59.53
2023-02-01T04:23:05.186Z,58.90
2023-02-01T04:25:31.827Z,59.54
2023-02-01T04:27:58.497Z,61.11
2023-02-01T04:30:25.556Z,59.88
2023-02-01T04:32:52.342Z,58.96
2023-02-01T04:35:19.046Z,58.81
2023-02-01T04:37:45.693Z,61.16
2023-02-01T04:40:12.356Z,60.61
2023-02-01T04:42:39.045Z,59.55
2023-02-01T04:45:05.647Z,59.55
2023-02-01T04:47:32.281Z,59.46
2023-02-01T04:49:58.907Z,58.82
2023-02-01T04:52:25.504Z,59.67
2023-02-01T04:54:52.148Z,59.85
2023-02-01T04:57:18.784Z,59.69
2023-02-01T04:59:45.452Z,60.92
2023-02-01T05:02:12.109Z,59.39
2023-02-01T05:04:38.787Z,60.08
2023-02-01T05:07:05.433Z,59.76
2023-02-01T05:09:32.089Z,59.20
2023-02-01T05:11:58.822Z,60.32
2023-02-01T05:14:25.483Z,60.12
2023-02-01T05:16:52.143Z,59.83
2023-02-01T05:19:18.770Z,60.95
2023-02-01T05:21:45.421Z,60.10
2023-02-01T05:24:12.070Z,60.52
2023-02-01T05:26:38.833Z,59.73
2023-02-01T05:29:05.643Z,59.20
2023-02-01T05:31:32.439Z,59.41
2023-02-01T05:33:59.073Z,58.80
2023-02-01T05:36:25.669Z,59.13
2023-02-01T05:38:52.335Z,59.05
2023-02-01T05:41:18.977Z,58.79
2023-02-01T05:43:45.613Z,59.75
2023-02-01T05:46:12.278Z,59.28
2023-02-01T05:48:38.997Z,59.28
2023-02-01T05:51:05.592Z,59.84
2023-02-01T05:53:32.253Z,59.37
2023-02-01T05:55:58.846Z,59.39
2023-02-01T05:58:25.471Z,59.41
2023-02-01T06:00:52.130Z,59.63
2023-02-01T06:03:18.778Z,59.71
2023-02-01T06:05:45.420Z,59.15
2023-02-01T06:08:12.023Z,60.21
2023-02-01T06:10:38.656Z,59.84
2023-02-01T06:13:05.319Z,60.36
2023-02-01T06:15:31.958Z,59.48
2023-02-01T06:17:58.564Z,59.18
2023-02-01T06:20:25.444Z,59.48
2023-02-01T06:22:52.112Z,60.10
2023-02-01T06:25:18.786Z,59.84
2023-02-01T06:27:45.418Z,59.81
2023-02-01T06:30:12.059Z,59.24
2023-02-01T06:32:38.672Z,60.62
2023-02-01T06:35:05.319Z,60.68
2023-02-01T06:37:31.945Z,60.08
2023-02-01T06:39:58.669Z,59.32
2023-02-01T06:42:25.348Z,59.33
2023-02-01T06:44:51.987Z,60.27
2023-02-01T06:47:18.555Z,59.56
2023-02-01T06:49:45.190Z,59.82
2023-02-01T06:52:11.856Z,59.11
2023-02-01T06:54:38.579Z,59.38
2023-02-01T06:57:05.207Z,59.33
2023-02-01T06:59:31.908Z,59.52
2023-02-01T07:01:58.595Z,60.64
2023-02-01T07:04:25.271Z,59.96
2023-02-01T07:06:51.930Z,59.84
2023-02-01T07:09:18.605Z,59.77
2023-02-01T07:11:45.267Z,59.94
2023-02-01T07:14:11.930Z,60.11
2023-02-01T07:16:38.633Z,59.70
2023-02-01T07:19:05.240Z,59.23
2023-02-01T07:21:32.065Z,58.64
2023-02-01T07:23:58.805Z,60.04
2023-02-01T07:26:25.455Z,60.71
2023-02-01T07:28:52.141Z,61.10
2023-02-01T07:31:18.839Z,62.08
2023-02-01T07:33:45.475Z,62.01
2023-02-01T07:36:12.142Z,61.22
2023-02-01T07:38:38.793Z,60.76
2023-02-01T07:41:05.428Z,60.83
2023-02-01T07:43:32.030Z,60.49
2023-02-01T07:45:58.734Z,59.61
2023-02-01T07:48:25.412Z,58.92
2023-02-01T07:50:52.089Z,59.06
2023-02-01T07:53:18.789Z,57.83
2023-02-01T07:55:45.495Z,57.96
2023-02-01T07:58:12.137Z,57.99
2023-02-01T08:00:38.822Z,58.29
2023-02-01T08:03:05.526Z,57.81
2023-02-01T08:05:32.111Z,57.37
2023-02-01T08:07:58.777Z,57.33
2023-02-01T08:10:25.775Z,56.85
2023-02-01T08:12:52.557Z,57.57
2023-02-01T08:15:19.201Z,58.65
2023-02-01T08:17:47.817Z,57.86
2023-02-01T08:20:14.534Z,57.48
2023-02-01T08:22:41.121Z,57.36
2023-02-01T08:25:07.856Z,57.63
2023-02-01T08:27:34.497Z,56.81
2023-02-01T08:30:01.144Z,56.60
2023-02-01T08:32:27.739Z,57.26
2023-02-01T08:34:54.419Z,58.02
2023-02-01T08:37:21.109Z,59.06
2023-02-01T08:39:47.881Z,58.93
2023-02-01T08:42:14.483Z,57.96
2023-02-01T08:44:41.089Z,57.67
2023-02-01T08:47:07.705Z,57.65
2023-02-01T08:49:34.345Z,57.30
2023-02-01T08:52:06.994Z,57.86
2023-02-01T08:54:34.053Z,56.83
2023-02-01T08:57:00.768Z,57.42
2023-02-01T08:59:28.655Z,57.33
2023-02-01T09:01:56.888Z,57.95
2023-02-01T09:04:23.687Z,56.91
2023-02-01T09:06:50.334Z,57.68
2023-02-01T09:09:16.954Z,57.79
2023-02-01T09:11:43.559Z,56.22
2023-02-01T09:14:10.270Z,56.11
2023-02-01T09:16:36.899Z,56.29
2023-02-01T09:19:24.509Z,56.23
2023-02-01T09:21:50.097Z,55.34
2023-02-01T09:24:16.737Z,55.07
2023-02-01T09:26:43.398Z,54.55
2023-02-01T09:29:10.062Z,53.89
2023-02-01T09:31:37.556Z,51.66
2023-02-01T09:34:04.232Z,51.62
2023-02-01T09:36:31.325Z,51.49
2023-02-01T09:38:58.031Z,50.75
2023-02-01T09:41:24.671Z,49.28
2023-02-01T09:43:51.267Z,49.85
2023-02-01T09:46:18.073Z,47.60
2023-02-01T09:48:44.709Z,46.54
2023-02-01T09:51:11.527Z,46.97
2023-02-01T09:53:38.189Z,47.31
2023-02-01T09:56:04.871Z,47.69
2023-02-01T09:58:31.497Z,46.15
2023-02-01T10:00:58.167Z,46.81
2023-02-01T10:03:24.829Z,45.95
2023-02-01T10:05:51.450Z,45.48
2023-02-01T10:08:18.131Z,44.70
2023-02-01T10:10:44.779Z,44.59
2023-02-01T10:13:11.490Z,44.67
2023-02-01T10:15:38.225Z,44.20
2023-02-01T10:18:04.896Z,44.24
2023-02-01T10:20:31.603Z,44.12
2023-02-01T10:23:22.769Z,44.04
2023-02-01T10:25:45.120Z,44.22
2023-02-01T10:28:11.871Z,44.85
2023-02-01T10:30:38.610Z,43.75
2023-02-01T10:33:05.294Z,43.93
2023-02-01T10:35:31.916Z,42.61
2023-02-01T10:37:58.535Z,42.17
2023-02-01T10:40:25.592Z,42.18
2023-02-01T10:42:52.527Z,42.13
2023-02-01T10:45:19.143Z,40.46
2023-02-01T10:47:45.759Z,42.79
2023-02-01T10:50:12.409Z,41.62
2023-02-01T10:52:39.063Z,40.52
2023-02-01T10:55:05.693Z,40.38
2023-02-01T10:57:32.329Z,39.49
2023-02-01T10:59:58.962Z,39.15
2023-02-01T11:02:25.684Z,38.94
2023-02-01T11:04:52.423Z,37.85
2023-02-01T11:07:19.109Z,38.88
2023-02-01T11:09:45.721Z,37.06
2023-02-01T11:12:12.411Z,38.82
2023-02-01T11:14:39.063Z,38.45
2023-02-01T11:17:05.778Z,38.07
2023-02-01T11:19:32.453Z,36.40
2023-02-01T11:21:59.069Z,36.70
2023-02-01T11:24:25.735Z,35.91
2023-02-01T11:26:52.372Z,37.18
2023-02-01T11:29:19.052Z,36.67
2023-02-01T11:31:45.807Z,36.72
2023-02-01T11:34:12.442Z,35.67
2023-02-01T11:36:39.093Z,36.32
2023-02-01T11:39:05.904Z,35.32
2023-02-01T11:41:32.539Z,34.49
2023-02-01T11:43:59.170Z,34.41
2023-02-01T11:46:25.929Z,32.81
2023-02-01T11:48:52.625Z,34.28
2023-02-01T11:51:19.571Z,34.83
2023-02-01T11:53:46.253Z,35.68
2023-02-01T11:56:12.892Z,35.48
2023-02-01T11:58:39.633Z,35.95
2023-02-01T12:01:06.299Z,35.20
2023-02-01T12:03:33.003Z,34.74
2023-02-01T12:05:59.631Z,35.71
2023-02-01T12:08:26.314Z,33.16
2023-02-01T12:10:52.968Z,32.74
2023-02-01T12:13:19.607Z,29.59
2023-02-01T12:15:46.505Z,29.82
2023-02-01T12:18:13.202Z,30.43
2023-02-01T12:20:39.904Z,29.26
2023-02-01T12:23:06.534Z,29.27
2023-02-01T12:25:33.246Z,29.73
2023-02-01T12:27:59.949Z,29.03
2023-02-01T12:30:26.687Z,27.91
2023-02-01T12:32:53.402Z,29.22
2023-02-01T12:35:20.045Z,27.10
2023-02-01T12:37:46.709Z,27.98
2023-02-01T12:40:13.368Z,28.35
2023-02-01T12:42:40.008Z,28.75
2023-02-01T12:45:06.622Z,28.81
2023-02-01T12:47:33.244Z,28.43
2023-02-01T12:49:59.851Z,28.31
2023-02-01T12:52:26.515Z,29.04
2023-02-01T12:54:53.133Z,28.61
2023-02-01T12:57:20.027Z,27.98
2023-02-01T12:59:46.704Z,27.81
2023-02-01T13:02:13.360Z,28.71
2023-02-01T13:04:40.045Z,27.79
2023-02-01T13:07:06.723Z,28.34
2023-02-01T13:09:33.332Z,28.49
2023-02-01T13:12:00.013Z,27.85
2023-02-01T13:14:26.630Z,27.58
2023-02-01T13:16:53.392Z,27.78
2023-02-01T13:19:23.347Z,27.87
2023-02-01T13:21:50.040Z,29.16
2023-02-01T13:24:16.731Z,29.12
2023-02-01T13:26:43.458Z,29.12
2023-02-01T13:29:10.181Z,28.92
2023-02-01T13:31:37.081Z,28.53
2023-02-01T13:34:03.812Z,28.72
2023-02-01T13:36:30.542Z,28.68
2023-02-01T13:38:57.165Z,30.43
2023-02-01T13:41:23.845Z,30.48
2023-02-01T13:43:50.507Z,31.30
2023-02-01T13:46:17.267Z,30.86
2023-02-01T13:48:43.926Z,30.58
2023-02-01T13:51:10.579Z,30.65
2023-02-01T13:53:37.234Z,30.36
2023-02-01T13:56:03.955Z,31.49
2023-02-01T13:58:30.621Z,30.86
2023-02-01T14:00:57.314Z,31.22
2023-02-01T14:03:23.958Z,31.52
2023-02-01T14:05:50.740Z,31.54
2023-02-01T14:08:17.426Z,32.22
2023-02-01T14:10:44.059Z,32.33
2023-02-01T14:13:10.693Z,32.08
2023-02-01T14:15:37.435Z,33.10
2023-02-01T14:18:04.130Z,32.67
2023-02-01T14:20:30.821Z,33.23
2023-02-01T14:22:57.498Z,33.09
2023-02-01T14:25:24.524Z,33.17
2023-02-01T14:27:51.341Z,33.31
2023-02-01T14:30:17.984Z,33.71
2023-02-01T14:32:44.625Z,33.58
2023-02-01T14:35:11.290Z,33.84
2023-02-01T14:37:37.949Z,34.41
2023-02-01T14:40:04.621Z,34.77
2023-02-01T14:42:31.267Z,34.31
2023-02-01T14:44:58.751Z,35.12
2023-02-01T14:47:26.619Z,35.04
2023-02-01T14:49:53.294Z,34.82
2023-02-01T14:52:19.944Z,34.31
2023-02-01T14:54:46.669Z,34.32
2023-02-01T14:57:13.333Z,34.29
2023-02-01T14:59:39.963Z,34.18
2023-02-01T15:02:06.608Z,34.49
2023-02-01T15:04:33.303Z,34.59
2023-02-01T15:06:59.992Z,34.42
2023-02-01T15:09:26.690Z,34.69
2023-02-01T15:11:53.306Z,34.59
2023-02-01T15:14:19.918Z,34.23
2023-02-01T15:16:46.601Z,34.58
2023-02-01T15:19:13.206Z,34.46
2023-02-01T15:21:39.879Z,34.69
2023-02-01T15:24:06.687Z,34.34
2023-02-01T15:26:33.430Z,34.81
2023-02-01T15:29:00.069Z,34.85
2023-02-01T15:31:26.827Z,34.34
2023-02-01T15:33:53.633Z,34.25
2023-02-01T15:36:20.407Z,35.21
2023-02-01T15:38:47.113Z,35.37
2023-02-01T15:41:13.790Z,35.26
2023-02-01T15:43:40.462Z,35.48
2023-02-01T15:46:07.133Z,35.00
2023-02-01T15:48:33.746Z,35.24
2023-02-01T15:51:00.370Z,34.99
2023-02-01T15:53:27.039Z,35.68
2023-02-01T15:55:53.676Z,35.62
2023-02-01T15:58:20.368Z,36.04
2023-02-01T16:00:47.001Z,35.87
2023-02-01T16:03:13.721Z,36.02
2023-02-01T16:05:40.495Z,35.63
2023-02-01T16:08:07.109Z,36.01
2023-02-01T16:10:33.782Z,36.02
2023-02-01T16:13:00.391Z,36.09
2023-02-01T16:15:27.051Z,35.95
2023-02-01T16:17:53.730Z,35.97
2023-02-01T16:20:20.401Z,36.64
2023-02-01T16:22:47.041Z,35.71
2023-02-01T16:25:13.673Z,35.64
2023-02-01T16:27:40.308Z,35.88
2023-02-01T16:30:06.974Z,36.06
2023-02-01T16:32:33.617Z,36.47
2023-02-01T16:35:00.254Z,36.51
2023-02-01T16:37:26.901Z,36.60
2023-02-01T16:39:53.566Z,36.88
2023-02-01T16:42:20.195Z,36.74
2023-02-01T16:44:46.880Z,38.19
2023-02-01T16:47:13.538Z,37.28
2023-02-01T16:49:40.304Z,37.35
2023-02-01T16:52:06.916Z,37.34
2023-02-01T16:54:33.615Z,37.44
2023-02-01T16:57:00.218Z,37.41
2023-02-01T16:59:26.931Z,37.51
2023-02-01T17:01:53.585Z,37.85
2023-02-01T17:04:20.231Z,38.03
2023-02-01T17:06:46.924Z,38.69
2023-02-01T17:09:13.622Z,38.48
2023-02-01T17:11:40.286Z,39.12
2023-02-01T17:14:07.093Z,39.37
2023-02-01T17:16:33.724Z,39.45
2023-02-01T17:19:00.447Z,39.10
2023-02-01T17:21:27.125Z,38.84
2023-02-01T17:23:53.789Z,39.29
2023-02-01T17:26:20.497Z,39.79
2023-02-01T17:28:47.143Z,39.78
2023-02-01T17:31:13.798Z,40.13
2023-02-01T17:33:40.494Z,40.24
2023-02-01T17:36:07.154Z,40.30
2023-02-01T17:38:33.835Z,40.94
2023-02-01T17:41:00.514Z,41.00
2023-02-01T17:43:27.141Z,40.89
2023-02-01T17:45:54.177Z,41.28
2023-02-01T17:48:20.823Z,41.32
2023-02-01T17:50:47.467Z,41.52
2023-02-01T17:53:14.215Z,41.75
2023-02-01T17:55:41.214Z,41.54
2023-02-01T17:58:07.974Z,42.06
2023-02-01T18:00:34.676Z,42.39
2023-02-01T18:03:01.640Z,42.38
2023-02-01T18:05:28.288Z,42.47
2023-02-01T18:07:55.003Z,43.00
2023-02-01T18:10:21.666Z,43.15
2023-02-01T18:12:48.285Z,43.07
2023-02-01T18:15:15.050Z,43.11
2023-02-01T18:17:41.689Z,43.98
2023-02-01T18:20:08.380Z,44.16
2023-02-01T18:22:35.057Z,44.40
2023-02-01T18:25:01.712Z,44.19
2023-02-01T18:27:28.382Z,44.48
2023-02-01T18:29:55.018Z,43.70
2023-02-01T18:32:21.686Z,44.71
2023-02-01T18:34:48.286Z,44.94
2023-02-01T18:37:14.991Z,45.63
2023-02-01T18:39:41.702Z,45.98
2023-02-01T18:42:08.388Z,46.95
2023-02-01T18:44:35.042Z,47.15
2023-02-01T18:47:01.707Z,47.01
2023-02-01T18:49:28.367Z,45.98
2023-02-01T18:51:55.060Z,47.43
2023-02-01T18:54:21.761Z,46.91
2023-02-01T18:56:48.444Z,46.65
2023-02-01T18:59:15.083Z,46.56
2023-02-01T19:01:41.727Z,46.75
2023-02-01T19:04:21.011Z,47.83
2023-02-01T19:06:52.353Z,47.58
2023-02-01T19:09:19.049Z,47.43
2023-02-01T19:11:45.734Z,47.63
2023-02-01T19:14:12.413Z,47.67
2023-02-01T19:16:39.043Z,48.31
2023-02-01T19:19:05.684Z,48.20
2023-02-01T19:21:32.336Z,47.66
2023-02-01T19:23:58.988Z,47.10
2023-02-01T19:26:25.697Z,47.76
2023-02-01T19:28:52.368Z,47.84
2023-02-01T19:31:19.120Z,48.02
2023-02-01T19:33:45.808Z,49.21
2023-02-01T19:36:12.439Z,48.71
2023-02-01T19:38:39.627Z,49.19
2023-02-01T19:41:06.307Z,49.36
2023-02-01T19:43:33.044Z,49.00
2023-02-01T19:46:03.242Z,49.40
2023-02-01T19:48:31.626Z,49.19
2023-02-01T19:50:58.446Z,49.25
2023-02-01T19:53:25.175Z,49.54
2023-02-01T19:55:51.916Z,50.90
2023-02-01T19:58:18.586Z,50.87
2023-02-01T20:00:44.463Z,50.80
2023-02-01T20:03:11.355Z,50.48
2023-02-01T20:05:38.297Z,50.34
2023-02-01T20:08:04.919Z,48.74
2023-02-01T20:10:31.705Z,49.12
2023-02-01T20:12:58.452Z,51.46
2023-02-01T20:15:25.521Z,52.67
2023-02-01T20:17:52.354Z,51.04
2023-02-01T20:20:19.000Z,51.76
2023-02-01T20:22:45.609Z,52.45
2023-02-01T20:25:12.278Z,52.37
2023-02-01T20:27:39.823Z,50.95
2023-02-01T20:30:06.482Z,51.34
2023-02-01T20:32:33.275Z,50.83
2023-02-01T20:34:59.891Z,51.00
2023-02-01T20:37:26.492Z,50.88
2023-02-01T20:39:53.158Z,51.79
2023-02-01T20:42:19.819Z,51.89
2023-02-01T20:44:46.452Z,52.14
2023-02-01T20:47:13.090Z,51.44
2023-02-01T20:49:39.769Z,52.63
2023-02-01T20:52:07.513Z,51.18
2023-02-01T20:54:34.153Z,51.90
2023-02-01T20:57:00.768Z,50.79
2023-02-01T20:59:27.405Z,50.73
2023-02-01T21:01:54.059Z,51.00
2023-02-01T21:04:20.756Z,51.03
2023-02-01T21:06:47.431Z,51.12
2023-02-01T21:09:14.057Z,51.04
2023-02-01T21:11:40.683Z,50.84
2023-02-01T21:14:07.346Z,50.77
2023-02-01T21:16:34.066Z,51.21
2023-02-01T21:19:00.729Z,53.28
2023-02-01T21:21:27.415Z,51.82
2023-02-01T21:23:54.028Z,51.85
2023-02-01T21:26:20.645Z,51.94
2023-02-01T21:28:47.290Z,51.54
2023-02-01T21:31:14.056Z,53.01
2023-02-01T21:33:40.829Z,53.29
2023-02-01T21:36:07.430Z,52.92
2023-02-01T21:38:34.104Z,52.97
2023-02-01T21:41:00.726Z,52.59
2023-02-01T21:43:27.357Z,52.57
2023-02-01T21:45:54.027Z,53.52
2023-02-01T21:48:20.755Z,53.56
2023-02-01T21:50:47.366Z,53.11
2023-02-01T21:53:14.005Z,53.01
2023-02-01T21:55:40.726Z,52.91
2023-02-01T21:58:07.369Z,52.71
2023-02-01T22:00:33.997Z,54.58
2023-02-01T22:03:00.641Z,53.58
2023-02-01T22:05:27.309Z,54.24
2023-02-01T22:07:53.998Z,53.37
2023-02-01T22:10:20.685Z,53.54
2023-02-01T22:12:47.300Z,54.47
2023-02-01T22:15:13.969Z,54.12
2023-02-01T22:17:40.616Z,53.90
2023-02-01T22:20:07.258Z,56.64
2023-02-01T22:22:33.847Z,55.17
2023-02-01T22:25:00.497Z,54.39
2023-02-01T22:27:30.498Z,54.43
2023-02-01T22:30:13.794Z,55.35
2023-02-01T22:32:40.444Z,54.29
2023-02-01T22:35:07.215Z,53.56
2023-02-01T22:37:33.874Z,55.57
2023-02-01T22:40:00.523Z,56.18
2023-02-01T22:42:27.204Z,55.68
2023-02-01T22:44:53.856Z,56.72
2023-02-01T22:47:20.483Z,56.61
2023-02-01T22:49:47.135Z,56.32
2023-02-01T22:52:13.810Z,57.28
2023-02-01T22:54:40.540Z,56.46
2023-02-01T22:57:08.005Z,56.22
2023-02-01T22:59:34.824Z,56.56
2023-02-01T23:02:01.431Z,56.56
2023-02-01T23:04:28.111Z,56.20
2023-02-01T23:06:54.850Z,55.45
2023-02-01T23:09:21.483Z,54.76
2023-02-01T23:11:48.128Z,55.63
2023-02-01T23:14:14.768Z,54.67
2023-02-01T23:16:41.436Z,55.37
2023-02-01T23:19:08.072Z,57.31
2023-02-01T23:21:34.744Z,56.58
2023-02-01T23:24:01.389Z,55.51
2023-02-01T23:26:28.056Z,56.82
2023-02-01T23:28:54.685Z,57.07
2023-02-01T23:31:21.431Z,56.65
2023-02-01T23:33:48.160Z,56.18
2023-02-01T23:36:14.790Z,56.65
2023-02-01T23:38:41.490Z,57.88
2023-02-01T23:41:08.292Z,59.32
2023-02-01T23:43:34.947Z,58.97
2023-02-01T23:46:01.613Z,58.98
2023-02-01T23:48:28.292Z,58.88
2023-02-01T23:50:54.991Z,58.51
2023-02-01T23:53:21.654Z,57.75
2023-02-01T23:55:48.326Z,56.79
2023-02-01T23:58:14.940Z,56.43
